createdAt,value
2023-02-21T00:02:19.797Z,99190.23
2023-02-21T00:07:45.273Z,99189.38
2023-02-21T00:13:10.036Z,99189.33
2023-02-21T00:18:34.624Z,99207.59
2023-02-21T00:23:58.877Z,99202.33
2023-02-21T00:29:23.309Z,99197.77
2023-02-21T00:34:47.969Z,99205.67
2023-02-21T00:40:12.567Z,99204.18
2023-02-21T00:45:37.582Z,99203.80
2023-02-21T00:51:02.373Z,99204.62
2023-02-21T00:56:27.889Z,99194.03
2023-02-21T01:01:52.442Z,99193.36
2023-02-21T01:07:17.119Z,99186.13
2023-02-21T01:12:42.040Z,99179.78
2023-02-21T01:18:06.420Z,99174.27
2023-02-21T01:23:32.872Z,99176.67
2023-02-21T01:28:57.806Z,99173.89
2023-02-21T01:34:22.817Z,99175.27
2023-02-21T01:39:47.242Z,99174.10
2023-02-21T01:45:48.219Z,99171.91
2023-02-21T01:51:15.237Z,99163.79
2023-02-21T01:56:39.966Z,99172.33
2023-02-21T02:02:10.247Z,99172.60
2023-02-21T02:07:35.688Z,99182.54
2023-02-21T02:13:13.936Z,99180.68
2023-02-21T02:18:43.305Z,99193.33
2023-02-21T02:24:07.944Z,99193.77
2023-02-21T02:29:32.759Z,99203.71
2023-02-21T02:34:55.779Z,99203.42
2023-02-21T02:40:08.246Z,99207.17
2023-02-21T02:45:23.315Z,99205.83
2023-02-21T02:50:32.467Z,99199.14
2023-02-21T02:55:46.758Z,99200.68
2023-02-21T03:01:03.284Z,99199.02
2023-02-21T03:06:22.573Z,99201.45
2023-02-21T03:11:28.790Z,99191.79
2023-02-21T03:16:39.432Z,99194.31
2023-02-21T03:21:51.750Z,99200.28
2023-02-21T03:27:01.443Z,99194.55
2023-02-21T03:32:35.977Z,99189.50
2023-02-21T03:37:45.055Z,99184.30
2023-02-21T03:42:51.053Z,99189.74
2023-02-21T03:47:57.094Z,99185.54
2023-02-21T03:53:02.978Z,99188.30
2023-02-21T03:58:09.443Z,99186.40
2023-02-21T04:03:16.001Z,99190.75
2023-02-21T04:08:31.892Z,99191.17
2023-02-21T04:13:37.698Z,99189.33
2023-02-21T04:18:43.627Z,99184.18
2023-02-21T04:23:50.343Z,99175.02
2023-02-21T04:28:56.617Z,99178.45
2023-02-21T04:34:11.830Z,99178.50
2023-02-21T04:39:21.377Z,99182.74
2023-02-21T04:44:28.249Z,99185.04
2023-02-21T04:49:33.969Z,99190.16
2023-02-21T04:54:39.772Z,99197.82
2023-02-21T04:59:45.444Z,99200.19
2023-02-21T05:04:51.141Z,99199.48
2023-02-21T05:09:57.093Z,99205.13
2023-02-21T05:15:02.725Z,99202.89
2023-02-21T05:20:11.822Z,99199.55
2023-02-21T05:25:19.095Z,99196.38
2023-02-21T05:30:25.411Z,99201.53
2023-02-21T05:35:31.378Z,99204.33
2023-02-21T05:40:37.210Z,99207.98
2023-02-21T05:45:42.916Z,99212.64
2023-02-21T05:50:48.709Z,99216.04
2023-02-21T05:55:54.339Z,99223.60
2023-02-21T06:01:00.407Z,99223.77
2023-02-21T06:06:06.692Z,99224.75
2023-02-21T06:11:16.247Z,99229.23
2023-02-21T06:16:25.498Z,99231.82
2023-02-21T06:21:31.120Z,99235.60
2023-02-21T06:26:41.288Z,99237.99
2023-02-21T06:31:47.100Z,99240.45
2023-02-21T06:36:55.229Z,99245.90
2023-02-21T06:42:00.858Z,99249.98
2023-02-21T06:47:07.792Z,99255.88
2023-02-21T06:52:17.885Z,99257.90
2023-02-21T06:57:26.005Z,99272.58
2023-02-21T07:02:32.086Z,99282.23
2023-02-21T07:07:39.087Z,99296.90
2023-02-21T07:12:45.063Z,99300.84
2023-02-21T07:17:50.760Z,99310.77
2023-02-21T07:22:57.114Z,99325.74
2023-02-21T07:28:04.810Z,99340.20
2023-02-21T07:33:10.536Z,99350.02
2023-02-21T07:38:23.080Z,99361.67
2023-02-21T07:43:30.063Z,99374.79
2023-02-21T07:48:35.747Z,99385.12
2023-02-21T07:53:42.015Z,99387.48
2023-02-21T07:58:48.036Z,99393.99
2023-02-21T08:03:54.151Z,99397.59
2023-02-21T08:08:59.879Z,99406.23
2023-02-21T08:14:06.254Z,99415.73
2023-02-21T08:19:12.058Z,99420.87
2023-02-21T08:24:19.100Z,99434.16
2023-02-21T08:29:26.116Z,99436.05
2023-02-21T08:34:32.332Z,99444.20
2023-02-21T08:39:38.521Z,99451.35
2023-02-21T08:44:46.987Z,99454.92
2023-02-21T08:49:52.705Z,99466.81
2023-02-21T08:54:58.602Z,99470.20
2023-02-21T09:00:09.288Z,99470.38
2023-02-21T09:05:18.942Z,99473.91
2023-02-21T09:10:25.085Z,99485.80
2023-02-21T09:15:31.913Z,99495.45
2023-02-21T09:20:42.378Z,99503.58
2023-02-21T09:25:48.850Z,99509.02
2023-02-21T09:30:54.525Z,99519.43
2023-02-21T09:36:00.188Z,99529.55
2023-02-21T09:41:09.169Z,99539.23
2023-02-21T09:46:18.163Z,99546.52
2023-02-21T09:51:25.353Z,99556.34
2023-02-21T09:56:34.760Z,99558.16
2023-02-21T10:01:58.625Z,99565.61
2023-02-21T10:07:14.185Z,99566.17
2023-02-21T10:12:27.542Z,99571.29
2023-02-21T10:17:39.825Z,99578.59
2023-02-21T10:22:48.557Z,99575.39
2023-02-21T10:27:55.264Z,99586.70
2023-02-21T10:33:06.615Z,99590.58
2023-02-21T10:38:15.865Z,99592.61
2023-02-21T10:43:28.493Z,99598.77
2023-02-21T10:48:37.566Z,99613.80
2023-02-21T10:53:44.920Z,99620.60
2023-02-21T10:58:53.218Z,99617.87
2023-02-21T11:04:01.920Z,99636.14
2023-02-21T11:09:31.323Z,99642.71
2023-02-21T11:14:37.144Z,99643.07
2023-02-21T11:19:57.876Z,99652.20
2023-02-21T11:25:09.020Z,99662.89
2023-02-21T11:30:18.572Z,99672.38
2023-02-21T11:35:27.749Z,99670.58
2023-02-21T11:40:42.382Z,99677.11
2023-02-21T11:45:59.756Z,99672.92
2023-02-21T11:51:16.769Z,99672.21
2023-02-21T11:56:34.518Z,99668.10
2023-02-21T12:01:50.417Z,99670.35
2023-02-21T12:07:05.764Z,99675.93
2023-02-21T12:12:26.249Z,99683.91
2023-02-21T12:17:50.752Z,99687.56
2023-02-21T12:30:16.946Z,99698.59
2023-02-21T12:36:02.390Z,99695.85
2023-02-21T12:41:21.365Z,99702.15
2023-02-21T12:46:32.957Z,99702.95
2023-02-21T12:51:43.164Z,99702.36
2023-02-21T12:56:53.828Z,99700.80
2023-02-21T13:02:04.488Z,99709.01
2023-02-21T13:07:21.693Z,99716.48
2023-02-21T13:12:35.501Z,99721.40
2023-02-21T13:17:42.875Z,99728.98
2023-02-21T13:23:38.823Z,99732.95
2023-02-21T13:29:03.195Z,99738.77
2023-02-21T13:34:18.072Z,99743.75
2023-02-21T13:39:32.391Z,99751.02
2023-02-21T13:44:42.622Z,99760.87
2023-02-21T13:49:54.451Z,99772.55
2023-02-21T13:55:31.545Z,99776.61
2023-02-21T14:00:54.130Z,99778.84
2023-02-21T14:06:24.032Z,99781.23
2023-02-21T14:11:36.155Z,99793.72
2023-02-21T14:19:09.749Z,99805.82
2023-02-21T14:24:21.179Z,99812.80
2023-02-21T14:29:39.746Z,99813.30
2023-02-21T14:34:56.360Z,99823.09
2023-02-21T14:40:12.289Z,99827.11
2023-02-21T14:45:29.841Z,99830.08
2023-02-21T14:50:46.246Z,99831.64
2023-02-21T14:56:16.005Z,99835.52
2023-02-21T15:01:41.342Z,99840.07
2023-02-21T15:07:00.068Z,99846.46
2023-02-21T15:12:09.530Z,99854.50
2023-02-21T15:17:20.893Z,99871.71
2023-02-21T15:22:25.900Z,99880.83
2023-02-21T15:27:31.737Z,99886.98
2023-02-21T15:32:38.384Z,99892.41
2023-02-21T15:37:45.715Z,99893.24
2023-02-21T15:42:53.156Z,99906.06
2023-02-21T15:48:01.438Z,99910.69
2023-02-21T15:53:16.472Z,99911.13
2023-02-21T15:58:25.233Z,99917.97
2023-02-21T16:03:35.123Z,99927.91
2023-02-21T16:08:51.898Z,99931.82
2023-02-21T16:13:58.060Z,99930.98
2023-02-21T16:19:04.200Z,99932.02
2023-02-21T16:24:30.973Z,99940.99
2023-02-21T16:29:37.549Z,99947.40
2023-02-21T16:34:43.517Z,99954.63
2023-02-21T16:39:50.476Z,99960.10
2023-02-21T16:44:56.799Z,99969.03
2023-02-21T16:50:05.007Z,99980.08
2023-02-21T16:55:15.276Z,99982.67
2023-02-21T17:00:23.268Z,99987.13
2023-02-21T17:05:29.384Z,99992.96
2023-02-21T17:10:35.515Z,99998.99
2023-02-21T17:15:41.358Z,100009.21
2023-02-21T17:20:48.492Z,100011.52
2023-02-21T17:25:54.996Z,100013.58
2023-02-21T17:31:00.768Z,100020.62
2023-02-21T17:36:07.552Z,100023.05
2023-02-21T17:41:15.896Z,100021.03
2023-02-21T17:46:22.716Z,100022.45
2023-02-21T17:51:29.018Z,100023.05
2023-02-21T17:56:35.753Z,100022.02
2023-02-21T18:01:41.958Z,100020.13
2023-02-21T18:06:48.241Z,100030.98
2023-02-21T18:11:56.408Z,100040.89
2023-02-21T18:17:02.807Z,100044.06
2023-02-21T18:22:09.861Z,100050.02
2023-02-21T18:27:15.861Z,100050.10
2023-02-21T18:32:23.952Z,100052.91
2023-02-21T18:37:30.042Z,100060.60
2023-02-21T18:42:36.394Z,100067.30
2023-02-21T18:47:42.799Z,100070.76
2023-02-21T18:52:49.017Z,100076.05
2023-02-21T18:57:56.933Z,100082.02
2023-02-21T19:03:06.101Z,100092.98
2023-02-21T19:08:14.205Z,100102.22
2023-02-21T19:13:20.665Z,100114.70
2023-02-21T19:18:28.142Z,100122.67
2023-02-21T19:23:36.847Z,100124.23
2023-02-21T19:28:42.781Z,100126.85
2023-02-21T19:33:49.517Z,100126.23
2023-02-21T19:38:55.359Z,100130.27
2023-02-21T19:44:01.726Z,100140.29
2023-02-21T19:49:17.755Z,100145.27
2023-02-21T19:54:30.925Z,100151.45
2023-02-21T19:59:37.998Z,100162.23
2023-02-21T20:04:44.011Z,100161.34
2023-02-21T20:09:50.019Z,100160.77
2023-02-21T20:14:56.746Z,100166.77
2023-02-21T20:20:07.008Z,100174.48
2023-02-21T20:25:13.691Z,100179.98
2023-02-21T20:30:20.135Z,100194.40
2023-02-21T20:35:26.810Z,100208.97
2023-02-21T20:40:33.344Z,100215.83
2023-02-21T20:45:39.248Z,100225.14
2023-02-21T20:50:46.362Z,100225.52
2023-02-21T20:55:52.428Z,100229.36
2023-02-21T21:00:58.400Z,100233.88
2023-02-21T21:06:04.624Z,100240.44
2023-02-21T21:11:10.482Z,100242.73
2023-02-21T21:16:18.174Z,100246.56
2023-02-21T21:21:30.034Z,100257.41
2023-02-21T21:26:35.829Z,100261.72
2023-02-21T21:31:46.125Z,100271.03
2023-02-21T21:36:53.370Z,100272.10
2023-02-21T21:42:08.598Z,100280.90
2023-02-21T21:47:15.679Z,100283.66
2023-02-21T21:52:24.006Z,100287.13
2023-02-21T21:57:30.513Z,100295.41
2023-02-21T22:02:36.513Z,100306.08
2023-02-21T22:07:42.867Z,100315.72
2023-02-21T22:12:50.253Z,100323.98
2023-02-21T22:17:56.368Z,100333.63
2023-02-21T22:23:03.222Z,100343.27
2023-02-21T22:28:12.980Z,100342.42
2023-02-21T22:33:21.914Z,100344.48
2023-02-21T22:38:27.829Z,100347.57
2023-02-21T22:43:33.810Z,100351.70
2023-02-21T22:48:40.116Z,100357.55
2023-02-21T22:53:50.737Z,100353.09
2023-02-21T22:58:59.879Z,100358.59
2023-02-21T23:04:16.132Z,100374.75
2023-02-21T23:09:24.373Z,100377.31
2023-02-21T23:14:31.600Z,100386.25
2023-02-21T23:19:37.754Z,100393.30
2023-02-21T23:24:45.860Z,100403.25
2023-02-21T23:29:54.073Z,100408.91
2023-02-21T23:34:59.876Z,100415.43
2023-02-21T23:40:15.617Z,100425.91
2023-02-21T23:45:24.191Z,100426.42
2023-02-21T23:50:32.672Z,100432.73
2023-02-21T23:55:40.368Z,100433.34
